Chama, Colorado
Current Conditions -  °F | °C
As of 2:28 AM on Friday 24 Oct 2014 (Local Time) from KVTP Reporting Station
Clear Clear  
Wind Chill: 35°   Ceiling: Unl
Heat Index: 43°   Visibility: 10mi
Dew Point: 28°   Wind: 15mph
Humidity: 57%   Direction: 190°S
Pressure: 30.44"   Gusts: 33mph
Location:  37.16°N, 105.38°W
Report Text: KVTP 240828Z AUTO 19013G29KT 150V220 10SM CLR 06/M02 A3044 RMK AO2
Loading
Personal Weather Stations






























Interactive Weather Map
Tropical Storm Tracking
New forecast layout! Learn more

10-Day Weather Forecast

Advertisements
Track Severe Weather on mobile